createdAt,value
2022-11-09T00:00:49.376Z,11.76
2022-11-09T00:03:16.319Z,11.76
2022-11-09T00:05:43.052Z,11.76
2022-11-09T00:08:11.558Z,11.75
2022-11-09T00:10:38.408Z,11.76
2022-11-09T00:13:05.687Z,11.79
2022-11-09T00:15:32.419Z,11.79
2022-11-09T00:18:02.990Z,11.79
2022-11-09T00:20:29.756Z,11.81
2022-11-09T00:22:56.375Z,11.78
2022-11-09T00:25:22.854Z,11.79
2022-11-09T00:27:49.366Z,11.80
2022-11-09T00:30:15.904Z,11.81
2022-11-09T00:32:42.489Z,11.80
2022-11-09T00:35:09.304Z,11.82
2022-11-09T00:37:35.874Z,11.82
2022-11-09T00:40:02.621Z,11.80
2022-11-09T00:42:29.146Z,11.79
2022-11-09T00:44:55.622Z,11.83
2022-11-09T00:47:22.177Z,11.79
2022-11-09T00:49:48.751Z,11.80
2022-11-09T00:52:15.256Z,11.82
2022-11-09T00:54:41.782Z,11.79
2022-11-09T00:57:08.369Z,11.82
2022-11-09T00:59:34.837Z,11.83
2022-11-09T01:02:01.348Z,11.87
2022-11-09T01:04:27.920Z,11.84
2022-11-09T01:06:54.513Z,11.84
2022-11-09T01:09:21.046Z,11.87
2022-11-09T01:11:47.773Z,11.85
2022-11-09T01:14:14.304Z,11.87
2022-11-09T01:16:40.890Z,11.88
2022-11-09T01:19:07.485Z,11.92
2022-11-09T01:21:33.986Z,11.91
2022-11-09T01:24:01.712Z,11.90
2022-11-09T01:26:28.553Z,11.92
2022-11-09T01:28:55.117Z,11.89
2022-11-09T01:31:22.239Z,11.89
2022-11-09T01:33:49.143Z,11.88
2022-11-09T01:36:21.662Z,11.88
2022-11-09T01:38:49.140Z,11.85
2022-11-09T01:41:22.217Z,11.82
2022-11-09T01:44:07.005Z,11.81
2022-11-09T01:46:57.923Z,11.81
2022-11-09T01:49:30.038Z,11.82
2022-11-09T01:52:03.255Z,11.78
2022-11-09T01:54:34.645Z,11.78
2022-11-09T01:57:05.716Z,11.75
2022-11-09T01:59:39.053Z,11.76
2022-11-09T02:02:05.660Z,11.73
2022-11-09T02:04:40.795Z,11.68
2022-11-09T02:07:07.968Z,11.70
2022-11-09T02:09:59.269Z,11.70
2022-11-09T02:12:28.800Z,11.70
2022-11-09T02:14:56.846Z,11.67
2022-11-09T02:17:23.619Z,11.67
2022-11-09T02:19:50.098Z,11.67
2022-11-09T02:22:16.936Z,11.66
2022-11-09T02:24:43.495Z,11.64
2022-11-09T02:27:10.895Z,11.65
2022-11-09T02:29:41.250Z,11.63
2022-11-09T02:32:17.176Z,11.61
2022-11-09T02:34:43.675Z,11.59
2022-11-09T02:37:10.379Z,11.57
2022-11-09T02:39:38.102Z,11.58
2022-11-09T02:42:10.187Z,11.55
2022-11-09T02:44:43.607Z,11.53
2022-11-09T02:47:10.156Z,11.55
2022-11-09T02:49:36.718Z,11.52
2022-11-09T02:52:03.442Z,11.52
2022-11-09T02:54:31.264Z,11.52
2022-11-09T02:56:57.832Z,11.50
2022-11-09T02:59:24.318Z,11.49
2022-11-09T03:01:50.902Z,11.48
2022-11-09T03:04:18.012Z,11.45
2022-11-09T03:06:45.053Z,11.45
2022-11-09T03:09:12.533Z,11.43
2022-11-09T03:11:40.860Z,11.44
2022-11-09T03:14:09.786Z,11.48
2022-11-09T03:16:39.894Z,11.48
2022-11-09T03:19:07.138Z,11.48
2022-11-09T03:21:33.684Z,11.48
2022-11-09T03:24:00.294Z,11.50
2022-11-09T03:26:27.068Z,11.49
2022-11-09T03:28:53.737Z,11.50
2022-11-09T03:31:20.234Z,11.48
2022-11-09T03:33:46.810Z,11.49
2022-11-09T03:36:13.391Z,11.50
2022-11-09T03:38:39.902Z,11.50
2022-11-09T03:41:06.526Z,11.48
2022-11-09T03:43:33.048Z,11.46
2022-11-09T03:45:59.561Z,11.46
2022-11-09T03:48:26.076Z,11.47
2022-11-09T03:50:52.590Z,11.48
2022-11-09T03:53:19.337Z,11.47
2022-11-09T03:55:46.102Z,11.47
2022-11-09T03:58:15.785Z,11.47
2022-11-09T04:00:42.400Z,11.49
2022-11-09T04:03:08.955Z,11.48
2022-11-09T04:05:35.981Z,11.48
2022-11-09T04:08:02.624Z,11.46
2022-11-09T04:10:29.182Z,11.46
2022-11-09T04:12:55.747Z,11.48
2022-11-09T04:15:22.586Z,11.49
2022-11-09T04:17:57.183Z,11.51
2022-11-09T04:20:24.052Z,11.51
2022-11-09T04:22:57.305Z,11.54
2022-11-09T04:25:25.187Z,11.53
2022-11-09T04:27:58.224Z,11.53
2022-11-09T04:30:28.114Z,11.53
2022-11-09T04:32:56.147Z,11.53
2022-11-09T04:35:23.137Z,11.50
2022-11-09T04:37:56.449Z,11.48
2022-11-09T04:40:24.574Z,11.46
2022-11-09T04:42:51.505Z,11.45
2022-11-09T04:45:18.582Z,11.42
2022-11-09T04:47:45.151Z,11.43
2022-11-09T04:50:12.165Z,11.43
2022-11-09T04:52:38.975Z,11.43
2022-11-09T04:55:06.106Z,11.44
2022-11-09T04:57:32.652Z,11.45
2022-11-09T04:59:59.141Z,11.43
2022-11-09T05:02:25.692Z,11.42
2022-11-09T05:04:52.164Z,11.41
2022-11-09T05:07:18.823Z,11.41
2022-11-09T05:09:45.359Z,11.43
2022-11-09T05:12:15.017Z,11.40
2022-11-09T05:14:41.562Z,11.37
2022-11-09T05:17:08.877Z,11.37
2022-11-09T05:19:35.644Z,11.37
2022-11-09T05:22:22.213Z,11.37
2022-11-09T05:24:48.754Z,11.41
2022-11-09T05:27:15.260Z,11.42
2022-11-09T05:29:41.776Z,11.46
2022-11-09T05:32:08.482Z,11.46
2022-11-09T05:34:35.071Z,11.46
2022-11-09T05:37:03.682Z,11.44
2022-11-09T05:39:30.458Z,11.47
2022-11-09T05:41:57.118Z,11.48
2022-11-09T05:44:23.668Z,11.47
2022-11-09T05:46:50.192Z,11.46
2022-11-09T05:49:16.715Z,11.45
2022-11-09T05:51:43.225Z,11.44
2022-11-09T05:54:09.814Z,11.43
2022-11-09T05:56:36.361Z,11.42
2022-11-09T05:59:02.971Z,11.41
2022-11-09T06:01:29.463Z,11.42
2022-11-09T06:03:55.959Z,11.42
2022-11-09T06:06:22.473Z,11.43
2022-11-09T06:08:50.035Z,11.41
2022-11-09T06:11:23.130Z,11.41
2022-11-09T06:13:51.087Z,11.44
2022-11-09T06:16:17.656Z,11.44
2022-11-09T06:18:44.477Z,11.45
2022-11-09T06:21:11.316Z,11.46
2022-11-09T06:23:37.884Z,11.47
2022-11-09T06:26:07.187Z,11.46
2022-11-09T06:28:34.603Z,11.49
2022-11-09T06:31:02.934Z,11.49
2022-11-09T06:33:34.418Z,11.52
2022-11-09T06:36:01.620Z,11.55
2022-11-09T06:38:28.839Z,11.55
2022-11-09T06:40:57.417Z,11.57
2022-11-09T06:43:24.174Z,11.60
2022-11-09T06:45:51.713Z,11.60
2022-11-09T06:48:18.249Z,11.60
2022-11-09T06:50:44.888Z,11.63
2022-11-09T06:53:13.366Z,11.64
2022-11-09T06:55:42.370Z,11.64
2022-11-09T06:58:15.935Z,11.67
2022-11-09T07:00:44.321Z,11.67
2022-11-09T07:03:15.874Z,11.69
2022-11-09T07:05:42.618Z,11.66
2022-11-09T07:08:09.656Z,11.66
2022-11-09T07:10:36.286Z,11.66
2022-11-09T07:13:05.633Z,11.68
2022-11-09T07:15:32.591Z,11.66
2022-11-09T07:18:00.923Z,11.66
2022-11-09T07:20:28.075Z,11.64
2022-11-09T07:22:54.593Z,11.64
2022-11-09T07:25:21.686Z,11.63
2022-11-09T07:27:48.454Z,11.61
2022-11-09T07:30:15.253Z,11.61
2022-11-09T07:35:29.294Z,11.60
2022-11-09T07:38:01.273Z,11.62
2022-11-09T07:40:27.922Z,11.64
2022-11-09T07:42:58.459Z,11.65
2022-11-09T07:45:25.974Z,11.67
2022-11-09T07:48:00.328Z,11.71
2022-11-09T07:50:28.649Z,11.72
2022-11-09T07:52:56.948Z,11.73
2022-11-09T07:55:24.535Z,11.76
2022-11-09T07:58:02.921Z,11.78
2022-11-09T08:00:31.771Z,11.80
2022-11-09T08:02:58.602Z,11.85
2022-11-09T08:05:25.439Z,11.85
2022-11-09T08:07:57.177Z,11.86
2022-11-09T08:10:25.264Z,11.88
2022-11-09T08:13:00.967Z,11.92
2022-11-09T08:15:28.465Z,11.92
2022-11-09T08:18:00.127Z,11.95
2022-11-09T08:20:26.977Z,11.97
2022-11-09T08:22:53.521Z,11.99
2022-11-09T08:25:20.030Z,12.01
2022-11-09T08:27:46.661Z,12.03
2022-11-09T08:30:16.173Z,12.05
2022-11-09T08:32:44.066Z,12.05
2022-11-09T08:35:13.562Z,12.07
2022-11-09T08:37:40.077Z,12.09
2022-11-09T08:40:07.521Z,12.10
2022-11-09T08:42:34.172Z,12.12
2022-11-09T08:45:00.986Z,12.14
2022-11-09T08:47:28.643Z,12.19
2022-11-09T08:49:55.421Z,12.24
2022-11-09T08:52:22.645Z,12.30
2022-11-09T08:54:49.424Z,12.30
2022-11-09T08:57:19.002Z,12.41
2022-11-09T08:59:46.429Z,12.43
2022-11-09T09:02:14.047Z,12.46
2022-11-09T09:04:41.299Z,12.52
2022-11-09T09:07:08.401Z,12.64
2022-11-09T09:09:35.290Z,12.75
2022-11-09T09:12:01.807Z,12.93
2022-11-09T09:14:28.384Z,12.87
2022-11-09T09:16:55.033Z,13.06
2022-11-09T09:19:21.914Z,13.13
2022-11-09T09:21:48.476Z,13.21
2022-11-09T09:24:14.992Z,13.11
2022-11-09T09:26:41.473Z,13.04
2022-11-09T09:29:08.248Z,13.03
2022-11-09T09:31:34.780Z,13.03
2022-11-09T09:34:01.319Z,13.26
2022-11-09T09:36:27.821Z,13.26
2022-11-09T09:38:54.602Z,13.30
2022-11-09T09:41:45.536Z,13.35
2022-11-09T09:44:36.915Z,13.26
2022-11-09T09:47:34.107Z,13.21
2022-11-09T09:50:13.230Z,13.20
2022-11-09T09:53:23.639Z,13.29
2022-11-09T09:55:59.418Z,13.31
2022-11-09T09:58:28.182Z,13.30
2022-11-09T10:01:12.086Z,13.32
2022-11-09T10:03:38.621Z,13.38
2022-11-09T10:06:22.060Z,13.43
2022-11-09T10:09:26.146Z,13.40
2022-11-09T10:12:01.247Z,13.37
2022-11-09T10:14:40.144Z,13.47
2022-11-09T10:17:34.027Z,13.48
2022-11-09T10:20:13.255Z,13.46
2022-11-09T10:23:06.127Z,13.55
2022-11-09T10:26:02.404Z,13.53
2022-11-09T10:28:34.275Z,13.68
2022-11-09T10:31:18.924Z,13.63
2022-11-09T10:33:54.350Z,13.71
2022-11-09T10:36:27.489Z,13.73
2022-11-09T10:38:59.088Z,13.75
2022-11-09T10:41:34.977Z,13.70
2022-11-09T10:44:01.534Z,13.64
2022-11-09T10:46:28.096Z,13.63
2022-11-09T10:48:55.764Z,13.67
2022-11-09T10:51:33.604Z,13.71
2022-11-09T10:54:18.883Z,13.67
2022-11-09T10:59:52.076Z,13.81
2022-11-09T11:02:25.200Z,13.85
2022-11-09T11:05:06.872Z,13.82
2022-11-09T11:07:35.402Z,13.91
2022-11-09T11:10:17.127Z,13.89
2022-11-09T11:12:46.681Z,13.81
2022-11-09T11:15:31.755Z,13.79
2022-11-09T11:18:04.309Z,13.86
2022-11-09T11:20:32.567Z,13.85
2022-11-09T11:23:20.447Z,13.87
2022-11-09T11:25:53.339Z,13.92
2022-11-09T11:28:42.641Z,13.91
2022-11-09T11:31:15.244Z,13.94
2022-11-09T11:33:42.171Z,13.96
2022-11-09T11:36:29.181Z,14.07
2022-11-09T11:38:55.613Z,14.01
2022-11-09T11:41:46.608Z,14.01
2022-11-09T11:44:20.905Z,13.96
2022-11-09T11:46:56.617Z,14.03
2022-11-09T11:49:47.258Z,14.02
2022-11-09T11:52:27.227Z,14.03
2022-11-09T11:55:16.378Z,14.05
2022-11-09T11:58:13.684Z,14.02
2022-11-09T12:01:05.172Z,14.01
2022-11-09T12:03:44.917Z,14.06
2022-11-09T12:06:21.501Z,14.07
2022-11-09T12:09:26.422Z,14.07
2022-11-09T12:12:03.433Z,14.00
2022-11-09T12:14:54.656Z,13.94
2022-11-09T12:17:53.195Z,13.94
2022-11-09T12:20:43.492Z,13.92
2022-11-09T12:23:28.066Z,13.95
2022-11-09T12:26:28.051Z,13.88
2022-11-09T12:29:21.307Z,13.91
2022-11-09T12:32:02.869Z,13.86
2022-11-09T12:34:57.103Z,13.91
2022-11-09T12:37:28.194Z,13.88
2022-11-09T12:39:55.523Z,13.92
2022-11-09T12:42:28.078Z,13.90
2022-11-09T12:45:05.441Z,13.90
2022-11-09T12:47:43.603Z,13.86
2022-11-09T12:50:14.596Z,13.83
2022-11-09T12:52:43.592Z,13.87
2022-11-09T12:55:18.962Z,13.86
2022-11-09T12:57:47.499Z,13.86
2022-11-09T13:00:35.616Z,13.84
2022-11-09T13:03:05.920Z,13.86
2022-11-09T13:05:35.471Z,13.83
2022-11-09T13:08:05.560Z,14.01
2022-11-09T13:10:40.191Z,13.93
2022-11-09T13:13:14.995Z,13.90
2022-11-09T13:16:09.180Z,13.95
2022-11-09T13:18:36.572Z,13.95
2022-11-09T13:21:23.332Z,14.02
2022-11-09T13:24:10.454Z,13.99
2022-11-09T13:26:38.050Z,13.91
2022-11-09T13:29:23.398Z,13.91
2022-11-09T13:32:10.585Z,13.92
2022-11-09T13:34:44.517Z,13.84
2022-11-09T13:37:42.271Z,13.79
2022-11-09T13:40:30.622Z,13.74
2022-11-09T13:43:16.291Z,13.73
2022-11-09T13:46:03.100Z,13.73
2022-11-09T13:48:40.780Z,13.74
2022-11-09T13:51:11.542Z,13.76
2022-11-09T13:53:38.013Z,13.78
2022-11-09T13:56:29.091Z,13.79
2022-11-09T13:59:13.213Z,13.79
2022-11-09T14:01:52.905Z,13.82
2022-11-09T14:04:37.903Z,13.85
2022-11-09T14:07:07.386Z,13.93
2022-11-09T14:09:47.501Z,13.88
2022-11-09T14:12:21.631Z,13.93
2022-11-09T14:15:05.024Z,13.89
2022-11-09T14:17:31.725Z,13.85
2022-11-09T14:20:24.085Z,13.83
2022-11-09T14:22:51.277Z,13.76
2022-11-09T14:25:20.506Z,13.69
2022-11-09T14:27:57.180Z,13.64
2022-11-09T14:30:26.925Z,13.58
2022-11-09T14:32:55.247Z,13.53
2022-11-09T14:35:35.196Z,13.49
2022-11-09T14:38:14.597Z,13.46
2022-11-09T14:40:45.841Z,13.46
2022-11-09T14:43:44.533Z,13.40
2022-11-09T14:46:23.420Z,13.37
2022-11-09T14:48:55.168Z,13.35
2022-11-09T14:51:27.802Z,13.36
2022-11-09T14:53:56.157Z,13.31
2022-11-09T14:56:23.672Z,13.26
2022-11-09T14:58:51.426Z,13.25
2022-11-09T15:01:17.958Z,13.22
2022-11-09T15:03:45.861Z,13.22
2022-11-09T15:06:15.032Z,13.19
2022-11-09T15:08:55.682Z,13.14
2022-11-09T15:11:32.015Z,13.11
2022-11-09T15:14:00.009Z,13.06
2022-11-09T15:16:29.726Z,13.00
2022-11-09T15:18:56.527Z,12.98
2022-11-09T15:21:26.167Z,12.93
2022-11-09T15:24:07.957Z,12.90
2022-11-09T15:26:40.135Z,12.87
2022-11-09T15:29:28.164Z,12.84
2022-11-09T15:32:00.313Z,12.82
2022-11-09T15:34:31.866Z,12.78
2022-11-09T15:36:58.517Z,12.76
2022-11-09T15:39:25.128Z,12.73
2022-11-09T15:41:51.644Z,12.70
2022-11-09T15:44:20.581Z,12.68
2022-11-09T15:46:51.276Z,12.65
2022-11-09T15:49:22.723Z,12.63
2022-11-09T15:51:49.471Z,12.60
2022-11-09T15:54:17.184Z,12.57
2022-11-09T15:56:44.503Z,12.55
2022-11-09T15:59:18.270Z,12.55
2022-11-09T16:01:44.818Z,12.52
2022-11-09T16:04:11.299Z,12.51
2022-11-09T16:06:40.357Z,12.49
2022-11-09T16:09:09.288Z,12.47
2022-11-09T16:11:35.996Z,12.46
2022-11-09T16:14:04.530Z,12.44
2022-11-09T16:16:31.332Z,12.42
2022-11-09T16:18:58.778Z,12.42
2022-11-09T16:21:25.623Z,12.43
2022-11-09T16:23:58.096Z,12.39
2022-11-09T16:26:25.146Z,12.37
2022-11-09T16:28:51.656Z,12.36
2022-11-09T16:31:21.718Z,12.34
2022-11-09T16:34:01.886Z,12.31
2022-11-09T16:36:29.179Z,12.34
2022-11-09T16:38:56.579Z,12.32
2022-11-09T16:41:25.064Z,12.36
2022-11-09T16:43:53.592Z,12.34
2022-11-09T16:46:25.762Z,12.27
2022-11-09T16:48:53.750Z,12.30
2022-11-09T16:51:20.624Z,12.26
2022-11-09T16:53:47.163Z,12.22
2022-11-09T16:56:14.194Z,12.33
2022-11-09T16:58:40.718Z,12.34
2022-11-09T17:01:12.412Z,12.31
2022-11-09T17:03:39.616Z,12.29
2022-11-09T17:06:11.051Z,12.30
2022-11-09T17:08:41.428Z,12.27
2022-11-09T17:11:10.311Z,12.29
2022-11-09T17:13:37.620Z,12.37
2022-11-09T17:16:08.098Z,12.45
2022-11-09T17:18:35.079Z,12.48
2022-11-09T17:21:01.577Z,12.47
2022-11-09T17:23:28.127Z,12.48
2022-11-09T17:25:56.502Z,12.47
2022-11-09T17:28:23.487Z,12.47
2022-11-09T17:30:50.390Z,12.40
2022-11-09T17:33:17.057Z,12.46
2022-11-09T17:35:43.664Z,12.37
2022-11-09T17:38:10.584Z,12.29
2022-11-09T17:40:37.431Z,12.20
2022-11-09T17:43:04.947Z,12.24
2022-11-09T17:45:31.563Z,12.16
2022-11-09T17:47:59.268Z,12.14
2022-11-09T17:50:27.070Z,12.11
2022-11-09T17:52:53.621Z,12.09
2022-11-09T17:55:20.120Z,12.12
2022-11-09T17:57:46.655Z,12.09
2022-11-09T18:00:13.806Z,12.07
2022-11-09T18:02:40.411Z,12.05
2022-11-09T18:05:07.428Z,12.00
2022-11-09T18:07:33.939Z,12.00
2022-11-09T18:10:00.430Z,11.99
2022-11-09T18:12:26.950Z,12.01
2022-11-09T18:14:53.426Z,12.01
2022-11-09T18:17:19.958Z,12.04
2022-11-09T18:19:46.506Z,12.04
2022-11-09T18:22:13.167Z,12.04
2022-11-09T18:24:39.843Z,12.00
2022-11-09T18:27:06.371Z,11.95
2022-11-09T18:29:32.840Z,11.94
2022-11-09T18:31:59.364Z,11.95
2022-11-09T18:34:25.845Z,11.98
2022-11-09T18:36:53.942Z,11.94
2022-11-09T18:39:20.566Z,11.89
2022-11-09T18:41:47.098Z,11.87
2022-11-09T18:44:13.649Z,11.87
2022-11-09T18:46:40.349Z,11.84
2022-11-09T18:49:11.480Z,11.81
2022-11-09T18:51:40.715Z,11.76
2022-11-09T18:54:07.211Z,11.75
2022-11-09T18:56:33.829Z,11.68
2022-11-09T18:59:00.588Z,11.67
2022-11-09T19:01:27.612Z,11.68
2022-11-09T19:03:58.949Z,11.66
2022-11-09T19:06:27.148Z,11.69
2022-11-09T19:09:12.285Z,11.62
2022-11-09T19:11:39.086Z,11.61
2022-11-09T19:14:05.818Z,11.53
2022-11-09T19:16:32.718Z,11.49
2022-11-09T19:18:59.333Z,11.45
2022-11-09T19:21:36.999Z,11.41
2022-11-09T19:24:04.478Z,11.37
2022-11-09T19:26:31.149Z,11.37
2022-11-09T19:28:58.697Z,11.32
2022-11-09T19:31:25.330Z,11.33
2022-11-09T19:33:52.479Z,11.30
2022-11-09T19:36:30.170Z,11.29
2022-11-09T19:38:57.143Z,11.28
2022-11-09T19:41:24.777Z,11.31
2022-11-09T19:43:52.771Z,11.27
2022-11-09T19:46:19.328Z,11.24
2022-11-09T19:48:47.622Z,11.22
2022-11-09T19:51:16.148Z,11.27
2022-11-09T19:53:42.944Z,11.29
2022-11-09T19:56:11.560Z,11.30
2022-11-09T19:58:38.380Z,11.33
2022-11-09T20:01:09.674Z,11.27
2022-11-09T20:03:36.828Z,11.26
2022-11-09T20:06:04.969Z,11.27
2022-11-09T20:08:35.918Z,11.25
2022-11-09T20:11:34.188Z,11.22
2022-11-09T20:14:00.718Z,11.31
2022-11-09T20:16:27.563Z,11.33
2022-11-09T20:18:54.827Z,11.33
2022-11-09T20:21:21.332Z,11.29
2022-11-09T20:23:47.968Z,11.27
2022-11-09T20:26:14.530Z,11.30
2022-11-09T20:28:41.079Z,11.27
2022-11-09T20:31:12.319Z,11.31
2022-11-09T20:33:39.136Z,11.29
2022-11-09T20:36:06.082Z,11.24
2022-11-09T20:38:32.733Z,11.27
2022-11-09T20:41:04.367Z,11.23
2022-11-09T20:43:31.750Z,11.21
2022-11-09T20:46:04.332Z,11.22
2022-11-09T20:48:52.923Z,11.17
2022-11-09T20:51:19.559Z,11.14
2022-11-09T20:53:47.210Z,11.20
2022-11-09T20:56:18.094Z,11.14
2022-11-09T20:58:44.900Z,11.13
2022-11-09T21:01:19.238Z,11.17
2022-11-09T21:03:47.077Z,11.15
2022-11-09T21:06:14.909Z,11.10
2022-11-09T21:08:52.689Z,11.06
2022-11-09T21:11:19.981Z,11.06
2022-11-09T21:13:53.362Z,11.11
2022-11-09T21:16:21.429Z,11.03
2022-11-09T21:18:48.779Z,10.99
2022-11-09T21:21:24.151Z,10.93
2022-11-09T21:24:09.332Z,11.00
2022-11-09T21:26:54.724Z,11.00
2022-11-09T21:29:42.467Z,11.03
2022-11-09T21:32:11.039Z,10.99
2022-11-09T21:34:37.941Z,10.93
2022-11-09T21:37:05.305Z,10.95
2022-11-09T21:39:32.908Z,10.90
2022-11-09T21:42:00.172Z,10.91
2022-11-09T21:44:31.680Z,10.88
2022-11-09T21:46:58.844Z,10.93
2022-11-09T21:49:25.760Z,11.00
2022-11-09T21:51:52.918Z,10.96
2022-11-09T21:54:20.484Z,11.03
2022-11-09T21:56:48.235Z,10.96
2022-11-09T21:59:14.808Z,10.99
2022-11-09T22:01:41.445Z,10.94
2022-11-09T22:04:08.694Z,10.89
2022-11-09T22:06:40.811Z,10.92
2022-11-09T22:09:12.485Z,10.92
2022-11-09T22:11:58.737Z,10.86
2022-11-09T22:14:44.340Z,10.90
2022-11-09T22:17:12.738Z,10.85
2022-11-09T22:19:58.628Z,10.84
2022-11-09T22:22:29.212Z,10.87
2022-11-09T22:24:56.172Z,10.85
2022-11-09T22:27:22.719Z,10.74
2022-11-09T22:29:49.833Z,10.70
2022-11-09T22:32:16.403Z,10.75
2022-11-09T22:34:43.690Z,10.70
2022-11-09T22:37:10.230Z,10.73
2022-11-09T22:39:36.729Z,10.69
2022-11-09T22:42:04.019Z,10.72
2022-11-09T22:44:31.090Z,10.67
2022-11-09T22:46:58.236Z,10.60
2022-11-09T22:49:25.487Z,10.61
2022-11-09T22:51:53.315Z,10.59
2022-11-09T22:54:22.762Z,10.58
2022-11-09T22:56:49.285Z,10.61
2022-11-09T22:59:15.882Z,10.62
2022-11-09T23:01:43.060Z,10.56
2022-11-09T23:04:10.602Z,10.57
2022-11-09T23:06:37.209Z,10.51
2022-11-09T23:09:03.991Z,10.54
2022-11-09T23:11:30.737Z,10.52
2022-11-09T23:13:57.228Z,10.50
2022-11-09T23:16:24.068Z,10.46
2022-11-09T23:18:56.578Z,10.50
2022-11-09T23:21:33.634Z,10.40
2022-11-09T23:24:02.368Z,10.39
2022-11-09T23:26:29.532Z,10.46
2022-11-09T23:28:56.663Z,10.40
2022-11-09T23:31:27.099Z,10.39
2022-11-09T23:33:56.073Z,10.34
2022-11-09T23:36:24.214Z,10.35
2022-11-09T23:38:51.147Z,10.32
2022-11-09T23:41:18.455Z,10.28
2022-11-09T23:43:48.894Z,10.31
2022-11-09T23:46:16.715Z,10.25
2022-11-09T23:48:43.353Z,10.21
2022-11-09T23:51:10.646Z,10.23
2022-11-09T23:53:37.526Z,10.23
2022-11-09T23:56:10.437Z,10.20
2022-11-09T23:58:37.581Z,10.17
